Подгорица, Albania

06:32 AM CET на 23 Ноември, 2017 (GMT +0100)
Podgorica | | Change Station

Elev 174 ft 42.36 °N, 19.25 °E | Updated 32 minutes ago

Претежно облачно
Претежно облачно
45 °F
Feels Like 45 °F
С
2
Ветер Променлив Ветер from Променлив

Денес
High -- | Low -- °F
--% Chance of Precip.
Вчера
High -- | Low -- °F
Precip. -- инчи
Притисок 30.18 инчи
Видливост 6.2 миљи
Облаци Делумно облачно 4000 ft
Претежно облачно 8000 ft
Точка на kондензација 41 °F
Влажност 87%
Дожд 0.00 инчи
Височина на снег Not available.
6:42 AM 4:14 PM
Првиот квартал, 19% visible
METAR LYPG 230500Z VRB02KT 9999 SCT040 BKN080 07/05 Q1022 NOSIG
Притисок 30.18 инчи
Видливост 6.2 миљи
Облаци Делумно облачно 4000 ft
Претежно облачно 8000 ft
Точка на kондензација 41 °F
Влажност 87%
Дожд 0.00 инчи
Височина на снег Not available.
6:42 AM 4:14 PM
Првиот квартал, 19% visible
METAR LYPG 230500Z VRB02KT 9999 SCT040 BKN080 07/05 Q1022 NOSIG

Get Severe Weather Alerts

Thanks for signing up!

Be on the lookout for a verification email in your inbox.

You'll start receiving the daily forecast at 6 AM.

×

10-Day Weather Forecast

×

Almanac

Астрономијата

Nov. 23, 2017 Изгревање Заоѓање
Актуелно време
Граѓанскиот самрак
Наутички самрак
Астрономски самрак
Месечината
Должина на видливата светлина
Должина на денот
Tomorrow will be .
, % of the Moon is Illuminated

Екстреми денес

Country Highs Country Lows

Community

WunderPhotos

Category 6

Welcome to Category 6. This is the collective home for Weather Underground's featured writeups by Dr. Jeff Masters (right), Bob Henson (left), Chris Burt, and other regular contributors.

Nearby

Квалитетот на воздухот

  Квалитетот на воздухот AQ индекс Загадувач
Not available.

Височина на снег

Station Depth Висина

Earthquake Activity

Град Distance Mag. Time & Date
Minimum magnitude displayed is 2.5.

Coastal Water Temperatures

Место Температура

Stations

Nearby Weather Stations

Локација на станицата Темп. Лични чувство за темп. со ветерот Точка на kондензација Влажност Ветер Precip. Elev Ажурирани Тип